Terminal Aerodrome Forecast
Issued by NWS

Home | Current Version | Previous Version | Text Only | Print | Product List | Glossary On
Versions: 1 2 3 4 5 6 7 8 9 10 11 12 13 14 15 16 17 18
000
FTUS45 KABQ 172100 AAA
TAFAEG
TAF AMD
KAEG 172123Z 1721/1818 23006KT P6SM OVC050
      TEMPO 1722/1802 4SM -SHSN OVC015
     FM180200 26005KT P6SM OVC040=

USA.gov is the U.S. government's official web portal to all federal, state and local government web resources and services.